Prudenville, MI (48651)

3:35 PM EDT on July 27, 2016 (GMT -0400)
Roscommon County | | Change Station

Elev 1152 ft 44.36 °N, 84.67 °W | Updated 21 minutes ago

Light Thunderstorms and Rain
Light Thunderstorm Rain
81 °F
Feels Like 83 °F
N
8
Wind Variable Wind from SW

Today
High -- | Low -- °F
--% Chance of Precip.
Yesterday
High -- | Low -- °F
Precip. -- in
Pressure 29.97 in
Visibility 10.0 miles
Clouds Mostly Cloudy 7500 ft
Mostly Cloudy 9500 ft
Overcast 11000 ft
Heat Index 83 °F
Dew Point 66 °F
Humidity 60%
Rainfall 0.00 in
Snow Depth Not available.
6:21 AM 9:08 PM
Last Quarter, 40% visible
SPECI KHTL 271914Z AUTO 23007KT 10SM -TSRA BKN075 BKN095 OVC110 27/19 A2997 RMK AO2 LTG DSNT SE-W RAB13 TSB08 P0000 T02720189
Pressure 29.97 in
Visibility 10.0 miles
Clouds Mostly Cloudy 7500 ft
Mostly Cloudy 9500 ft
Overcast 11000 ft
Heat Index 83 °F
Dew Point 66 °F
Humidity 60%
Rainfall 0.00 in
Snow Depth Not available.
6:21 AM 9:08 PM
Last Quarter, 40% visible
SPECI KHTL 271914Z AUTO 23007KT 10SM -TSRA BKN075 BKN095 OVC110 27/19 A2997 RMK AO2 LTG DSNT SE-W RAB13 TSB08 P0000 T02720189

10-Day Weather Forecast

Almanac

Astronomy

Jul. 27, 2016 Rise Set
Actual Time
Civil Twilight
Nautical Twilight
Astronomical Twilight
Moon
Length of Visible Light
Length of Day
Tomorrow will be .
, % of the Moon is Illuminated

Today's Extremes

State Highs State Lows

Community

WunderPhotos

Upload Photos

1,927,916 photos uploaded!

WunderBlog® & News

Nearby

Air Quality

  Air Quality AQ Index Pollutant
Not available.

Snow Depth

Station Depth Elevation

Earthquake Activity

City Distance Mag. Time & Date
Minimum magnitude displayed is 2.5.

Coastal Water Temperatures

Place Temperature

Stations

Nearby Weather Stations

Station Location Temp. Windchill Dew Point Humidity Wind Precip. Elev Updated Type
                   

Watches & Warnings

There are currently no watches in effect.